sensor_id;sensor_type;location;lat;lon;timestamp;P1;P2;P0
65680;PMS5003;61747;54.966;73.394;2022-07-29T00:01:23;7.33;7.33;3.00
65680;PMS5003;61747;54.966;73.394;2022-07-29T00:03:49;8.50;8.00;4.00
65680;PMS5003;61747;54.966;73.394;2022-07-29T00:06:19;9.75;8.50;4.00
65680;PMS5003;61747;54.966;73.394;2022-07-29T00:08:51;9.25;9.25;4.00
65680;PMS5003;61747;54.966;73.394;2022-07-29T00:11:16;9.00;7.33;3.00
65680;PMS5003;61747;54.966;73.394;2022-07-29T00:13:42;10.00;6.00;3.00
65680;PMS5003;61747;54.966;73.394;2022-07-29T00:16:08;8.67;7.00;4.00
65680;PMS5003;61747;54.966;73.394;2022-07-29T00:18:43;8.25;6.00;3.00
65680;PMS5003;61747;54.966;73.394;2022-07-29T00:21:08;7.00;7.00;3.00
65680;PMS5003;61747;54.966;73.394;2022-07-29T00:23:45;7.00;6.00;3.50
65680;PMS5003;61747;54.966;73.394;2022-07-29T00:26:11;7.00;6.00;2.00
65680;PMS5003;61747;54.966;73.394;2022-07-29T00:28:37;6.00;6.00;2.00
65680;PMS5003;61747;54.966;73.394;2022-07-29T00:31:07;7.00;6.25;3.00
65680;PMS5003;61747;54.966;73.394;2022-07-29T00:33:43;12.25;8.25;3.75
65680;PMS5003;61747;54.966;73.394;2022-07-29T00:36:12;16.00;11.00;4.00
65680;PMS5003;61747;54.966;73.394;2022-07-29T00:38:37;13.33;9.00;4.00
65680;PMS5003;61747;54.966;73.394;2022-07-29T00:41:13;10.50;6.00;2.50
65680;PMS5003;61747;54.966;73.394;2022-07-29T00:43:39;7.00;6.25;1.00
65680;PMS5003;61747;54.966;73.394;2022-07-29T00:46:06;6.00;5.00;0.25
65680;PMS5003;61747;54.966;73.394;2022-07-29T00:48:32;6.00;4.25;0.25
65680;PMS5003;61747;54.966;73.394;2022-07-29T00:50:58;2.75;2.75;0.00
65680;PMS5003;61747;54.966;73.394;2022-07-29T00:53:25;4.00;3.00;0.00
65680;PMS5003;61747;54.966;73.394;2022-07-29T00:56:00;2.00;1.75;0.00
65680;PMS5003;61747;54.966;73.394;2022-07-29T00:58:26;4.00;3.75;0.00
65680;PMS5003;61747;54.966;73.394;2022-07-29T01:00:53;3.00;1.75;0.00
65680;PMS5003;61747;54.966;73.394;2022-07-29T01:03:18;2.50;2.00;0.00
65680;PMS5003;61747;54.966;73.394;2022-07-29T01:05:45;2.00;1.75;0.00
65680;PMS5003;61747;54.966;73.394;2022-07-29T01:08:12;3.00;1.00;0.00
65680;PMS5003;61747;54.966;73.394;2022-07-29T01:10:39;3.00;2.00;0.00
65680;PMS5003;61747;54.966;73.394;2022-07-29T01:13:12;1.75;1.00;0.00
65680;PMS5003;61747;54.966;73.394;2022-07-29T01:15:49;1.50;1.50;0.00
65680;PMS5003;61747;54.966;73.394;2022-07-29T01:18:18;1.00;0.00;0.00
65680;PMS5003;61747;54.966;73.394;2022-07-29T01:29:03;3.00;1.00;0.00
65680;PMS5003;61747;54.966;73.394;2022-07-29T01:31:51;2.50;2.00;0.00
65680;PMS5003;61747;54.966;73.394;2022-07-29T01:37:03;3.00;1.25;0.00
65680;PMS5003;61747;54.966;73.394;2022-07-29T01:39:35;4.00;3.00;0.00
65680;PMS5003;61747;54.966;73.394;2022-07-29T01:44:57;4.00;4.00;0.00
65680;PMS5003;61747;54.966;73.394;2022-07-29T01:47:26;3.75;3.75;0.25
65680;PMS5003;61747;54.966;73.394;2022-07-29T01:49:52;4.75;4.75;0.00
65680;PMS5003;61747;54.966;73.394;2022-07-29T01:52:23;7.00;6.25;1.00
65680;PMS5003;61747;54.966;73.394;2022-07-29T01:54:54;5.75;5.75;2.00
65680;PMS5003;61747;54.966;73.394;2022-07-29T01:57:23;6.00;5.00;3.00
65680;PMS5003;61747;54.966;73.394;2022-07-29T01:59:56;6.00;5.00;2.00
65680;PMS5003;61747;54.966;73.394;2022-07-29T02:02:22;6.00;5.00;3.00
65680;PMS5003;61747;54.966;73.394;2022-07-29T02:04:48;8.00;6.00;3.00
65680;PMS5003;61747;54.966;73.394;2022-07-29T02:07:17;14.25;12.00;6.00
65680;PMS5003;61747;54.966;73.394;2022-07-29T02:09:43;23.75;19.50;11.25
65680;PMS5003;61747;54.966;73.394;2022-07-29T02:12:09;33.75;26.75;14.50
65680;PMS5003;61747;54.966;73.394;2022-07-29T02:14:37;36.00;27.00;15.00
65680;PMS5003;61747;54.966;73.394;2022-07-29T02:17:03;31.75;25.00;14.00
65680;PMS5003;61747;54.966;73.394;2022-07-29T02:19:30;23.25;18.25;8.50
65680;PMS5003;61747;54.966;73.394;2022-07-29T02:21:57;16.50;11.00;4.00
65680;PMS5003;61747;54.966;73.394;2022-07-29T02:24:24;9.75;6.50;2.00
65680;PMS5003;61747;54.966;73.394;2022-07-29T02:27:00;5.50;5.00;0.00
65680;PMS5003;61747;54.966;73.394;2022-07-29T02:29:28;5.75;5.50;2.00
65680;PMS5003;61747;54.966;73.394;2022-07-29T02:31:55;6.00;6.00;2.00
65680;PMS5003;61747;54.966;73.394;2022-07-29T02:34:22;5.00;5.00;1.00
65680;PMS5003;61747;54.966;73.394;2022-07-29T02:36:48;5.00;4.00;1.00
65680;PMS5003;61747;54.966;73.394;2022-07-29T02:39:18;6.50;5.50;1.75
65680;PMS5003;61747;54.966;73.394;2022-07-29T02:41:48;5.00;5.00;1.00
65680;PMS5003;61747;54.966;73.394;2022-07-29T02:44:19;5.00;4.00;0.00
65680;PMS5003;61747;54.966;73.394;2022-07-29T02:49:16;5.00;5.00;0.00
65680;PMS5003;61747;54.966;73.394;2022-07-29T02:52:04;3.00;3.00;0.00
65680;PMS5003;61747;54.966;73.394;2022-07-29T02:56:58;4.00;3.00;0.00
65680;PMS5003;61747;54.966;73.394;2022-07-29T02:59:26;5.25;3.75;0.00
65680;PMS5003;61747;54.966;73.394;2022-07-29T03:01:53;6.00;4.75;1.00
65680;PMS5003;61747;54.966;73.394;2022-07-29T03:04:20;5.25;4.00;1.00
65680;PMS5003;61747;54.966;73.394;2022-07-29T03:06:58;4.00;3.00;1.00
65680;PMS5003;61747;54.966;73.394;2022-07-29T03:09:25;5.00;3.00;1.00
65680;PMS5003;61747;54.966;73.394;2022-07-29T03:11:51;3.00;2.50;0.00
65680;PMS5003;61747;54.966;73.394;2022-07-29T03:14:19;2.00;2.00;1.00
65680;PMS5003;61747;54.966;73.394;2022-07-29T03:16:45;3.00;3.00;0.00
65680;PMS5003;61747;54.966;73.394;2022-07-29T03:19:12;4.00;1.00;0.00
65680;PMS5003;61747;54.966;73.394;2022-07-29T03:21:38;3.00;1.00;0.00
65680;PMS5003;61747;54.966;73.394;2022-07-29T03:24:04;2.67;1.33;0.00
65680;PMS5003;61747;54.966;73.394;2022-07-29T03:26:36;1.50;1.00;0.00
65680;PMS5003;61747;54.966;73.394;2022-07-29T03:29:01;3.67;2.67;0.00
65680;PMS5003;61747;54.966;73.394;2022-07-29T03:31:27;1.00;1.00;0.00
65680;PMS5003;61747;54.966;73.394;2022-07-29T03:33:53;2.00;1.33;0.00
65680;PMS5003;61747;54.966;73.394;2022-07-29T03:36:18;3.00;2.00;0.00
65680;PMS5003;61747;54.966;73.394;2022-07-29T03:38:44;3.00;3.00;0.00
65680;PMS5003;61747;54.966;73.394;2022-07-29T03:41:11;1.00;1.00;0.00
65680;PMS5003;61747;54.966;73.394;2022-07-29T03:43:38;0.00;0.00;0.00
65680;PMS5003;61747;54.966;73.394;2022-07-29T03:46:07;0.00;0.00;0.00
65680;PMS5003;61747;54.966;73.394;2022-07-29T03:48:34;0.00;0.00;0.00
65680;PMS5003;61747;54.966;73.394;2022-07-29T03:51:07;0.25;0.25;0.00
65680;PMS5003;61747;54.966;73.394;2022-07-29T03:53:42;2.00;2.00;0.00
65680;PMS5003;61747;54.966;73.394;2022-07-29T03:56:08;3.00;2.00;0.00
65680;PMS5003;61747;54.966;73.394;2022-07-29T03:58:35;1.00;1.00;0.00
65680;PMS5003;61747;54.966;73.394;2022-07-29T04:01:01;0.00;0.00;0.00
65680;PMS5003;61747;54.966;73.394;2022-07-29T04:03:33;1.00;0.75;0.00
65680;PMS5003;61747;54.966;73.394;2022-07-29T04:06:05;1.75;0.00;0.00
65680;PMS5003;61747;54.966;73.394;2022-07-29T04:08:32;2.00;1.25;0.00
65680;PMS5003;61747;54.966;73.394;2022-07-29T04:10:59;3.75;2.75;0.00
65680;PMS5003;61747;54.966;73.394;2022-07-29T04:13:34;6.00;3.50;0.00
65680;PMS5003;61747;54.966;73.394;2022-07-29T04:16:00;3.67;3.00;0.00
65680;PMS5003;61747;54.966;73.394;2022-07-29T04:18:26;8.33;6.67;2.00
65680;PMS5003;61747;54.966;73.394;2022-07-29T04:20:52;7.50;6.00;3.00
65680;PMS5003;61747;54.966;73.394;2022-07-29T04:23:18;8.67;6.00;2.00
65680;PMS5003;61747;54.966;73.394;2022-07-29T04:25:43;9.00;8.00;2.00
65680;PMS5003;61747;54.966;73.394;2022-07-29T04:28:14;10.00;8.00;3.50
65680;PMS5003;61747;54.966;73.394;2022-07-29T04:30:40;10.00;7.00;5.00
65680;PMS5003;61747;54.966;73.394;2022-07-29T04:33:06;13.33;9.67;4.00
65680;PMS5003;61747;54.966;73.394;2022-07-29T04:35:36;16.00;13.00;5.75
65680;PMS5003;61747;54.966;73.394;2022-07-29T04:38:02;18.00;14.00;6.00
65680;PMS5003;61747;54.966;73.394;2022-07-29T04:40:29;15.50;13.00;5.75
65680;PMS5003;61747;54.966;73.394;2022-07-29T04:42:56;18.00;15.00;6.50
65680;PMS5003;61747;54.966;73.394;2022-07-29T04:45:22;17.75;16.25;7.00
65680;PMS5003;61747;54.966;73.394;2022-07-29T04:47:47;20.33;18.00;7.00
65680;PMS5003;61747;54.966;73.394;2022-07-29T04:50:13;20.00;18.00;7.00
65680;PMS5003;61747;54.966;73.394;2022-07-29T04:52:40;20.00;17.00;6.75
65680;PMS5003;61747;54.966;73.394;2022-07-29T04:55:11;22.00;18.00;8.00
65680;PMS5003;61747;54.966;73.394;2022-07-29T04:57:36;16.25;15.25;6.00
65680;PMS5003;61747;54.966;73.394;2022-07-29T05:00:03;22.33;18.00;9.33
65680;PMS5003;61747;54.966;73.394;2022-07-29T05:02:29;20.75;18.00;7.00
65680;PMS5003;61747;54.966;73.394;2022-07-29T05:04:55;20.00;17.00;7.00
65680;PMS5003;61747;54.966;73.394;2022-07-29T05:07:21;20.33;17.00;8.00
65680;PMS5003;61747;54.966;73.394;2022-07-29T05:09:46;18.00;15.00;7.00
65680;PMS5003;61747;54.966;73.394;2022-07-29T05:12:12;20.00;17.33;7.00
65680;PMS5003;61747;54.966;73.394;2022-07-29T05:14:38;21.00;18.33;6.00
65680;PMS5003;61747;54.966;73.394;2022-07-29T05:17:04;19.00;16.33;7.00
65680;PMS5003;61747;54.966;73.394;2022-07-29T05:19:30;20.25;16.50;8.00
65680;PMS5003;61747;54.966;73.394;2022-07-29T05:21:56;21.00;18.00;8.00
65680;PMS5003;61747;54.966;73.394;2022-07-29T05:24:21;21.00;19.00;8.67
65680;PMS5003;61747;54.966;73.394;2022-07-29T05:26:47;21.25;19.25;9.25
65680;PMS5003;61747;54.966;73.394;2022-07-29T05:29:19;20.50;19.00;8.00
65680;PMS5003;61747;54.966;73.394;2022-07-29T05:31:45;21.00;19.00;7.25
65680;PMS5003;61747;54.966;73.394;2022-07-29T05:34:20;21.00;18.00;7.00
65680;PMS5003;61747;54.966;73.394;2022-07-29T05:36:46;22.33;17.00;7.00
65680;PMS5003;61747;54.966;73.394;2022-07-29T05:39:11;19.00;17.00;6.00
65680;PMS5003;61747;54.966;73.394;2022-07-29T05:41:38;18.00;18.00;7.50
65680;PMS5003;61747;54.966;73.394;2022-07-29T05:44:04;18.00;18.00;9.00
65680;PMS5003;61747;54.966;73.394;2022-07-29T05:46:34;19.50;17.00;8.00
65680;PMS5003;61747;54.966;73.394;2022-07-29T05:49:01;22.50;18.50;8.50
65680;PMS5003;61747;54.966;73.394;2022-07-29T05:51:28;19.00;18.00;9.00
65680;PMS5003;61747;54.966;73.394;2022-07-29T05:54:04;18.00;16.00;7.00
65680;PMS5003;61747;54.966;73.394;2022-07-29T05:56:30;18.00;16.00;8.50
65680;PMS5003;61747;54.966;73.394;2022-07-29T05:58:56;20.00;17.00;7.25
65680;PMS5003;61747;54.966;73.394;2022-07-29T06:01:22;19.00;18.00;7.00
65680;PMS5003;61747;54.966;73.394;2022-07-29T06:03:48;19.33;15.33;7.00
65680;PMS5003;61747;54.966;73.394;2022-07-29T06:06:14;18.00;16.00;7.33
65680;PMS5003;61747;54.966;73.394;2022-07-29T06:08:39;19.67;16.00;9.00
65680;PMS5003;61747;54.966;73.394;2022-07-29T06:11:05;20.50;18.00;8.00
65680;PMS5003;61747;54.966;73.394;2022-07-29T06:13:36;20.75;18.00;9.00
65680;PMS5003;61747;54.966;73.394;2022-07-29T06:16:12;20.00;19.25;8.25
65680;PMS5003;61747;54.966;73.394;2022-07-29T06:18:45;23.00;20.00;9.00
65680;PMS5003;61747;54.966;73.394;2022-07-29T06:21:11;19.00;19.00;6.00
65680;PMS5003;61747;54.966;73.394;2022-07-29T06:23:37;18.00;16.00;8.00
65680;PMS5003;61747;54.966;73.394;2022-07-29T06:26:03;16.00;14.00;8.00
65680;PMS5003;61747;54.966;73.394;2022-07-29T06:28:29;21.00;18.25;8.25
65680;PMS5003;61747;54.966;73.394;2022-07-29T06:30:55;22.00;20.00;9.00
65680;PMS5003;61747;54.966;73.394;2022-07-29T06:33:21;22.33;19.00;9.00
65680;PMS5003;61747;54.966;73.394;2022-07-29T06:35:46;21.00;18.00;9.00
65680;PMS5003;61747;54.966;73.394;2022-07-29T06:38:13;17.75;17.00;7.00
65680;PMS5003;61747;54.966;73.394;2022-07-29T06:40:42;17.00;17.00;8.75
65680;PMS5003;61747;54.966;73.394;2022-07-29T06:43:32;19.00;18.00;8.00
65680;PMS5003;61747;54.966;73.394;2022-07-29T06:46:02;18.00;16.50;8.00
65680;PMS5003;61747;54.966;73.394;2022-07-29T06:48:40;18.00;16.25;7.50
65680;PMS5003;61747;54.966;73.394;2022-07-29T06:51:07;19.00;18.00;9.00
65680;PMS5003;61747;54.966;73.394;2022-07-29T06:53:34;21.00;18.00;9.00
65680;PMS5003;61747;54.966;73.394;2022-07-29T06:56:00;20.50;19.00;8.50
65680;PMS5003;61747;54.966;73.394;2022-07-29T06:58:26;21.50;21.00;9.00
65680;PMS5003;61747;54.966;73.394;2022-07-29T07:01:05;21.00;19.00;8.25
65680;PMS5003;61747;54.966;73.394;2022-07-29T07:03:31;20.00;19.00;9.00
65680;PMS5003;61747;54.966;73.394;2022-07-29T07:05:57;19.67;18.00;7.00
65680;PMS5003;61747;54.966;73.394;2022-07-29T07:08:23;18.50;18.00;9.00
65680;PMS5003;61747;54.966;73.394;2022-07-29T07:10:49;20.00;20.00;10.00
65680;PMS5003;61747;54.966;73.394;2022-07-29T07:13:15;20.00;18.00;7.00
65680;PMS5003;61747;54.966;73.394;2022-07-29T07:15:43;20.50;20.00;9.25
65680;PMS5003;61747;54.966;73.394;2022-07-29T07:18:09;20.50;19.25;9.75
65680;PMS5003;61747;54.966;73.394;2022-07-29T07:20:35;21.50;20.00;11.00
65680;PMS5003;61747;54.966;73.394;2022-07-29T07:23:00;22.00;21.00;9.00
65680;PMS5003;61747;54.966;73.394;2022-07-29T07:25:27;20.25;20.00;8.00
65680;PMS5003;61747;54.966;73.394;2022-07-29T07:27:52;20.00;18.33;8.00
65680;PMS5003;61747;54.966;73.394;2022-07-29T07:30:18;20.00;20.00;8.00
65680;PMS5003;61747;54.966;73.394;2022-07-29T07:32:49;20.50;19.00;9.00
65680;PMS5003;61747;54.966;73.394;2022-07-29T07:35:23;18.75;18.00;8.25
65680;PMS5003;61747;54.966;73.394;2022-07-29T07:37:49;18.50;18.50;8.00
65680;PMS5003;61747;54.966;73.394;2022-07-29T07:40:18;20.75;19.25;9.00
65680;PMS5003;61747;54.966;73.394;2022-07-29T07:42:55;25.00;22.00;12.00
65680;PMS5003;61747;54.966;73.394;2022-07-29T07:45:21;24.00;22.50;12.00
65680;PMS5003;61747;54.966;73.394;2022-07-29T07:47:49;23.25;20.50;12.00
65680;PMS5003;61747;54.966;73.394;2022-07-29T07:50:15;22.33;21.00;12.00
65680;PMS5003;61747;54.966;73.394;2022-07-29T07:52:47;22.00;20.00;11.50
65680;PMS5003;61747;54.966;73.394;2022-07-29T07:55:19;22.00;20.00;11.00
65680;PMS5003;61747;54.966;73.394;2022-07-29T07:57:44;22.50;19.75;11.75
65680;PMS5003;61747;54.966;73.394;2022-07-29T08:00:21;22.00;20.25;11.00
65680;PMS5003;61747;54.966;73.394;2022-07-29T08:02:47;22.00;21.00;10.00
65680;PMS5003;61747;54.966;73.394;2022-07-29T08:05:18;22.00;19.00;10.00
65680;PMS5003;61747;54.966;73.394;2022-07-29T08:07:46;21.33;21.33;9.00
65680;PMS5003;61747;54.966;73.394;2022-07-29T08:10:13;22.00;22.00;9.00
65680;PMS5003;61747;54.966;73.394;2022-07-29T08:12:39;19.25;18.75;8.25
65680;PMS5003;61747;54.966;73.394;2022-07-29T08:15:05;21.00;19.00;9.00
65680;PMS5003;61747;54.966;73.394;2022-07-29T08:17:34;25.25;19.00;9.00
65680;PMS5003;61747;54.966;73.394;2022-07-29T08:20:05;20.50;19.00;9.75
65680;PMS5003;61747;54.966;73.394;2022-07-29T08:22:31;19.75;18.75;8.25
65680;PMS5003;61747;54.966;73.394;2022-07-29T08:24:56;20.33;19.00;9.00
65680;PMS5003;61747;54.966;73.394;2022-07-29T08:27:22;22.67;19.67;10.67
65680;PMS5003;61747;54.966;73.394;2022-07-29T08:29:48;21.00;20.00;11.00
65680;PMS5003;61747;54.966;73.394;2022-07-29T08:32:14;22.33;19.00;9.00
65680;PMS5003;61747;54.966;73.394;2022-07-29T08:34:40;23.00;19.00;10.00
65680;PMS5003;61747;54.966;73.394;2022-07-29T08:37:06;22.00;19.25;8.00
65680;PMS5003;61747;54.966;73.394;2022-07-29T08:39:32;22.00;19.00;8.33
65680;PMS5003;61747;54.966;73.394;2022-07-29T08:41:57;22.33;18.33;10.00
65680;PMS5003;61747;54.966;73.394;2022-07-29T08:44:28;21.25;16.00;7.00
65680;PMS5003;61747;54.966;73.394;2022-07-29T08:46:54;19.00;15.25;8.50
65680;PMS5003;61747;54.966;73.394;2022-07-29T08:49:20;21.00;18.00;10.00
65680;PMS5003;61747;54.966;73.394;2022-07-29T08:51:57;23.00;19.00;8.00
65680;PMS5003;61747;54.966;73.394;2022-07-29T08:54:22;22.00;19.00;8.33
65680;PMS5003;61747;54.966;73.394;2022-07-29T08:56:58;19.50;18.75;6.00
65680;PMS5003;61747;54.966;73.394;2022-07-29T08:59:25;20.25;20.25;8.00
65680;PMS5003;61747;54.966;73.394;2022-07-29T09:01:58;22.00;22.00;10.00
65680;PMS5003;61747;54.966;73.394;2022-07-29T09:04:27;19.75;19.00;10.00
65680;PMS5003;61747;54.966;73.394;2022-07-29T09:07:05;21.00;19.00;11.00
65680;PMS5003;61747;54.966;73.394;2022-07-29T09:09:32;23.00;20.00;11.25
65680;PMS5003;61747;54.966;73.394;2022-07-29T09:11:58;21.00;18.00;8.00
65680;PMS5003;61747;54.966;73.394;2022-07-29T09:14:25;24.00;20.75;10.00
65680;PMS5003;61747;54.966;73.394;2022-07-29T09:16:52;23.00;20.00;9.67
65680;PMS5003;61747;54.966;73.394;2022-07-29T09:19:28;25.00;22.00;12.00
65680;PMS5003;61747;54.966;73.394;2022-07-29T09:22:06;22.50;21.00;9.00
65680;PMS5003;61747;54.966;73.394;2022-07-29T09:24:44;26.00;20.50;10.50
65680;PMS5003;61747;54.966;73.394;2022-07-29T09:27:23;26.25;22.00;13.00
65680;PMS5003;61747;54.966;73.394;2022-07-29T09:32:23;23.00;20.00;9.00
65680;PMS5003;61747;54.966;73.394;2022-07-29T09:34:49;22.67;19.33;9.00
65680;PMS5003;61747;54.966;73.394;2022-07-29T09:37:27;24.00;22.33;10.33
65680;PMS5003;61747;54.966;73.394;2022-07-29T09:39:53;20.50;19.00;8.25
65680;PMS5003;61747;54.966;73.394;2022-07-29T09:42:29;20.50;19.00;12.00
65680;PMS5003;61747;54.966;73.394;2022-07-29T09:44:55;23.50;21.50;13.50
65680;PMS5003;61747;54.966;73.394;2022-07-29T09:47:40;21.00;20.00;14.00
65680;PMS5003;61747;54.966;73.394;2022-07-29T09:50:06;21.00;19.75;9.50
65680;PMS5003;61747;54.966;73.394;2022-07-29T09:52:32;21.25;19.75;10.25
65680;PMS5003;61747;54.966;73.394;2022-07-29T09:55:09;23.75;21.00;11.00
65680;PMS5003;61747;54.966;73.394;2022-07-29T09:57:35;26.00;20.00;10.00
65680;PMS5003;61747;54.966;73.394;2022-07-29T10:02:43;18.00;17.00;8.00
65680;PMS5003;61747;54.966;73.394;2022-07-29T10:05:25;23.00;19.00;8.25
65680;PMS5003;61747;54.966;73.394;2022-07-29T10:07:54;22.00;18.00;9.00
65680;PMS5003;61747;54.966;73.394;2022-07-29T10:10:21;19.50;18.00;8.00
65680;PMS5003;61747;54.966;73.394;2022-07-29T10:13:01;22.25;21.00;10.00
65680;PMS5003;61747;54.966;73.394;2022-07-29T10:15:28;22.50;22.50;12.50
65680;PMS5003;61747;54.966;73.394;2022-07-29T10:17:55;23.50;21.00;12.00
65680;PMS5003;61747;54.966;73.394;2022-07-29T10:20:31;22.00;19.25;8.50
65680;PMS5003;61747;54.966;73.394;2022-07-29T10:23:08;23.00;21.00;10.75
65680;PMS5003;61747;54.966;73.394;2022-07-29T10:25:35;22.00;20.00;9.75
65680;PMS5003;61747;54.966;73.394;2022-07-29T10:28:00;22.33;21.00;10.00
65680;PMS5003;61747;54.966;73.394;2022-07-29T10:30:27;23.50;21.00;10.75
65680;PMS5003;61747;54.966;73.394;2022-07-29T10:33:07;21.00;18.25;9.00
65680;PMS5003;61747;54.966;73.394;2022-07-29T10:41:03;21.25;18.75;9.50
65680;PMS5003;61747;54.966;73.394;2022-07-29T10:43:54;21.00;19.00;8.50
65680;PMS5003;61747;54.966;73.394;2022-07-29T10:46:20;22.50;20.00;11.75
65680;PMS5003;61747;54.966;73.394;2022-07-29T10:55:05;19.00;15.00;6.00
65680;PMS5003;61747;54.966;73.394;2022-07-29T10:59:48;21.75;18.75;9.25
65680;PMS5003;61747;54.966;73.394;2022-07-29T11:04:59;20.00;16.75;7.25
65680;PMS5003;61747;54.966;73.394;2022-07-29T11:07:29;20.00;18.00;10.00
65680;PMS5003;61747;54.966;73.394;2022-07-29T11:15:09;19.00;16.00;9.00
65680;PMS5003;61747;54.966;73.394;2022-07-29T11:22:58;20.00;20.00;10.00
65680;PMS5003;61747;54.966;73.394;2022-07-29T11:25:24;21.50;19.00;9.00
65680;PMS5003;61747;54.966;73.394;2022-07-29T11:27:54;22.00;19.50;7.50
65680;PMS5003;61747;54.966;73.394;2022-07-29T11:30:49;16.00;14.00;5.50
65680;PMS5003;61747;54.966;73.394;2022-07-29T11:33:53;15.00;14.00;7.00
65680;PMS5003;61747;54.966;73.394;2022-07-29T11:36:13;16.00;14.25;6.50
65680;PMS5003;61747;54.966;73.394;2022-07-29T11:38:39;17.75;16.50;7.00
65680;PMS5003;61747;54.966;73.394;2022-07-29T11:41:25;20.25;17.00;7.00
65680;PMS5003;61747;54.966;73.394;2022-07-29T11:43:57;20.00;17.00;8.00
65680;PMS5003;61747;54.966;73.394;2022-07-29T11:49:08;18.00;16.50;7.00
65680;PMS5003;61747;54.966;73.394;2022-07-29T11:51:35;17.00;16.00;8.00
65680;PMS5003;61747;54.966;73.394;2022-07-29T11:54:01;16.00;14.00;6.00
65680;PMS5003;61747;54.966;73.394;2022-07-29T11:56:27;18.75;15.50;7.25
65680;PMS5003;61747;54.966;73.394;2022-07-29T11:59:05;17.00;14.00;5.75
65680;PMS5003;61747;54.966;73.394;2022-07-29T12:01:36;18.00;16.75;7.00
65680;PMS5003;61747;54.966;73.394;2022-07-29T12:04:06;18.00;16.00;7.00
65680;PMS5003;61747;54.966;73.394;2022-07-29T12:06:33;15.75;14.75;5.50
65680;PMS5003;61747;54.966;73.394;2022-07-29T12:09:07;15.00;14.00;6.00
65680;PMS5003;61747;54.966;73.394;2022-07-29T12:11:34;15.50;12.50;6.50
65680;PMS5003;61747;54.966;73.394;2022-07-29T12:14:23;15.00;10.00;5.00
65680;PMS5003;61747;54.966;73.394;2022-07-29T12:16:55;17.00;13.00;7.00
65680;PMS5003;61747;54.966;73.394;2022-07-29T12:19:21;16.00;13.00;6.25
65680;PMS5003;61747;54.966;73.394;2022-07-29T12:21:47;18.25;14.25;7.00
65680;PMS5003;61747;54.966;73.394;2022-07-29T12:24:13;14.00;14.00;5.00
65680;PMS5003;61747;54.966;73.394;2022-07-29T12:26:55;13.00;11.00;4.00
65680;PMS5003;61747;54.966;73.394;2022-07-29T12:29:21;14.75;12.50;7.00
65680;PMS5003;61747;54.966;73.394;2022-07-29T12:31:48;17.00;13.25;7.00
65680;PMS5003;61747;54.966;73.394;2022-07-29T12:34:19;17.00;14.00;6.75
65680;PMS5003;61747;54.966;73.394;2022-07-29T12:36:46;13.75;12.75;6.00
65680;PMS5003;61747;54.966;73.394;2022-07-29T12:39:11;14.00;11.67;5.00
65680;PMS5003;61747;54.966;73.394;2022-07-29T12:41:37;13.75;11.00;5.25
65680;PMS5003;61747;54.966;73.394;2022-07-29T12:44:09;11.00;9.00;3.00
65680;PMS5003;61747;54.966;73.394;2022-07-29T12:46:35;14.00;13.00;7.00
65680;PMS5003;61747;54.966;73.394;2022-07-29T12:49:01;14.00;13.00;6.00
65680;PMS5003;61747;54.966;73.394;2022-07-29T12:51:35;16.00;12.00;5.00
65680;PMS5003;61747;54.966;73.394;2022-07-29T12:56:29;16.67;14.00;5.67
65680;PMS5003;61747;54.966;73.394;2022-07-29T12:58:55;15.00;12.00;5.00
65680;PMS5003;61747;54.966;73.394;2022-07-29T13:01:21;16.00;13.00;6.00
65680;PMS5003;61747;54.966;73.394;2022-07-29T13:03:56;14.00;10.00;7.00
65680;PMS5003;61747;54.966;73.394;2022-07-29T13:06:32;15.00;12.75;7.00
65680;PMS5003;61747;54.966;73.394;2022-07-29T13:09:04;17.25;13.00;6.00
65680;PMS5003;61747;54.966;73.394;2022-07-29T13:11:30;17.00;13.25;6.00
65680;PMS5003;61747;54.966;73.394;2022-07-29T13:13:56;16.00;12.00;5.00
65680;PMS5003;61747;54.966;73.394;2022-07-29T13:16:23;11.25;9.00;5.00
65680;PMS5003;61747;54.966;73.394;2022-07-29T13:19:05;10.00;8.50;5.00
65680;PMS5003;61747;54.966;73.394;2022-07-29T13:21:31;9.25;9.25;4.00
65680;PMS5003;61747;54.966;73.394;2022-07-29T13:23:57;9.67;9.67;4.67
65680;PMS5003;61747;54.966;73.394;2022-07-29T13:26:23;9.00;9.00;4.00
65680;PMS5003;61747;54.966;73.394;2022-07-29T13:28:54;9.00;9.00;3.00
65680;PMS5003;61747;54.966;73.394;2022-07-29T13:31:20;12.75;9.00;5.50
65680;PMS5003;61747;54.966;73.394;2022-07-29T13:33:46;13.00;9.50;4.75
65680;PMS5003;61747;54.966;73.394;2022-07-29T13:36:13;11.00;8.25;4.00
65680;PMS5003;61747;54.966;73.394;2022-07-29T13:38:38;10.00;10.00;4.00
65680;PMS5003;61747;54.966;73.394;2022-07-29T13:41:04;9.00;8.00;4.00
65680;PMS5003;61747;54.966;73.394;2022-07-29T13:43:36;10.00;9.00;5.00
65680;PMS5003;61747;54.966;73.394;2022-07-29T13:46:01;9.67;8.33;4.00
65680;PMS5003;61747;54.966;73.394;2022-07-29T13:48:27;8.00;8.00;4.00
65680;PMS5003;61747;54.966;73.394;2022-07-29T13:50:53;9.00;8.00;5.00
65680;PMS5003;61747;54.966;73.394;2022-07-29T13:53:18;11.00;10.00;4.00
65680;PMS5003;61747;54.966;73.394;2022-07-29T13:55:44;12.33;9.33;5.00
65680;PMS5003;61747;54.966;73.394;2022-07-29T13:58:10;14.00;11.00;5.25
65680;PMS5003;61747;54.966;73.394;2022-07-29T14:00:46;10.00;7.00;3.00
65680;PMS5003;61747;54.966;73.394;2022-07-29T14:03:12;9.75;7.00;3.00
65680;PMS5003;61747;54.966;73.394;2022-07-29T14:05:37;8.33;8.00;4.00
65680;PMS5003;61747;54.966;73.394;2022-07-29T14:08:03;8.00;7.00;4.67
65680;PMS5003;61747;54.966;73.394;2022-07-29T14:10:34;8.25;7.25;4.00
65680;PMS5003;61747;54.966;73.394;2022-07-29T14:13:00;8.33;6.00;3.00
65680;PMS5003;61747;54.966;73.394;2022-07-29T14:15:26;9.00;7.00;3.33
65680;PMS5003;61747;54.966;73.394;2022-07-29T14:17:56;11.50;10.25;4.00
65680;PMS5003;61747;54.966;73.394;2022-07-29T14:20:22;13.00;10.00;5.67
65680;PMS5003;61747;54.966;73.394;2022-07-29T14:22:48;7.75;7.00;4.00
65680;PMS5003;61747;54.966;73.394;2022-07-29T14:25:14;9.00;8.00;5.00
65680;PMS5003;61747;54.966;73.394;2022-07-29T14:27:39;8.00;8.00;4.00
65680;PMS5003;61747;54.966;73.394;2022-07-29T14:30:16;7.25;6.00;3.75
65680;PMS5003;61747;54.966;73.394;2022-07-29T14:32:47;8.00;7.00;2.25
65680;PMS5003;61747;54.966;73.394;2022-07-29T14:35:13;8.00;8.00;4.00
65680;PMS5003;61747;54.966;73.394;2022-07-29T14:37:39;7.50;7.50;3.00
65680;PMS5003;61747;54.966;73.394;2022-07-29T14:40:05;6.00;6.00;3.00
65680;PMS5003;61747;54.966;73.394;2022-07-29T14:42:31;7.00;7.00;3.00
65680;PMS5003;61747;54.966;73.394;2022-07-29T14:45:01;6.00;6.00;2.00
65680;PMS5003;61747;54.966;73.394;2022-07-29T14:47:38;7.00;7.00;3.00
65680;PMS5003;61747;54.966;73.394;2022-07-29T14:50:04;6.25;6.00;3.25
65680;PMS5003;61747;54.966;73.394;2022-07-29T14:52:30;7.00;7.00;2.00
65680;PMS5003;61747;54.966;73.394;2022-07-29T14:54:56;8.25;8.00;3.00
65680;PMS5003;61747;54.966;73.394;2022-07-29T14:57:21;6.00;6.00;2.00
65680;PMS5003;61747;54.966;73.394;2022-07-29T14:59:57;6.75;5.75;3.50